Bayberry, New York
Current Conditions -  °F | °C
As of 11:34 AM on Monday 26 Jan 2015 (Local Time) from KSYR Reporting Station
Light Snow Light Snow  
Wind Chill:   Ceiling: 2900
Heat Index: 14°   Visibility: 2.5mi
Dew Point:   Wind: 9mph
Humidity: 71%   Direction: 80°E
Pressure: 30.01"   Gusts: NA
Location:  43.1489°N, 76.2142°W
Report Text: KSYR 261634Z 08008KT 2 1/2SM -SN BKN029 OVC040 M10/M14 A3001 RMK AO2 SNB06 P0000 T11001144 $
Loading
Personal Weather Stations






























Interactive Weather Map New forecast layout! Learn more

10-Day Weather Forecast

Advertisements
Track Severe Weather on mobile